sensor_id;sensor_type;location;lat;lon;timestamp;pressure;altitude;pressure_sealevel;temperature;humidity
31082;BME280;17737;52.586;13.284;2022-10-16T00:01:37;100735.94;;;16.09;100.00
31082;BME280;17737;52.586;13.284;2022-10-16T00:04:05;100732.84;;;16.11;100.00
31082;BME280;17737;52.586;13.284;2022-10-16T00:06:33;100736.72;;;16.13;100.00
31082;BME280;17737;52.586;13.284;2022-10-16T00:09:03;100737.50;;;16.14;100.00
31082;BME280;17737;52.586;13.284;2022-10-16T00:11:33;100736.72;;;16.13;100.00
31082;BME280;17737;52.586;13.284;2022-10-16T00:14:04;100741.81;;;16.15;100.00
31082;BME280;17737;52.586;13.284;2022-10-16T00:16:34;100747.28;;;16.19;100.00
31082;BME280;17737;52.586;13.284;2022-10-16T00:19:02;100748.44;;;16.17;100.00
31082;BME280;17737;52.586;13.284;2022-10-16T00:21:31;100753.91;;;16.21;100.00
31082;BME280;17737;52.586;13.284;2022-10-16T00:24:03;100744.56;;;16.19;100.00
31082;BME280;17737;52.586;13.284;2022-10-16T00:26:35;100751.97;;;16.22;100.00
31082;BME280;17737;52.586;13.284;2022-10-16T00:29:05;100750.75;;;16.15;100.00
31082;BME280;17737;52.586;13.284;2022-10-16T00:31:35;100756.19;;;16.15;100.00
31082;BME280;17737;52.586;13.284;2022-10-16T00:34:03;100761.25;;;16.21;100.00
31082;BME280;17737;52.586;13.284;2022-10-16T00:36:31;100776.81;;;16.20;100.00
31082;BME280;17737;52.586;13.284;2022-10-16T00:38:59;100753.50;;;16.23;100.00
31082;BME280;17737;52.586;13.284;2022-10-16T00:41:30;100765.94;;;16.24;100.00
31082;BME280;17737;52.586;13.284;2022-10-16T00:44:00;100732.41;;;16.05;100.00
31082;BME280;17737;52.586;13.284;2022-10-16T00:46:35;100753.50;;;16.19;100.00
31082;BME280;17737;52.586;13.284;2022-10-16T00:49:08;100758.50;;;16.13;100.00
31082;BME280;17737;52.586;13.284;2022-10-16T00:51:40;100761.19;;;16.10;100.00
31082;BME280;17737;52.586;13.284;2022-10-16T00:54:13;100767.81;;;16.09;100.00
31082;BME280;17737;52.586;13.284;2022-10-16T00:56:46;100768.19;;;16.07;100.00
31082;BME280;17737;52.586;13.284;2022-10-16T00:59:18;100780.22;;;16.06;100.00
31082;BME280;17737;52.586;13.284;2022-10-16T01:01:48;100776.34;;;16.04;100.00
31082;BME280;17737;52.586;13.284;2022-10-16T01:04:16;100772.03;;;16.03;100.00
31082;BME280;17737;52.586;13.284;2022-10-16T01:06:50;100785.28;;;16.08;100.00
31082;BME280;17737;52.586;13.284;2022-10-16T01:09:33;100785.28;;;16.08;100.00
31082;BME280;17737;52.586;13.284;2022-10-16T01:12:16;100788.41;;;16.13;100.00
31082;BME280;17737;52.586;13.284;2022-10-16T01:14:56;100787.66;;;16.16;100.00
31082;BME280;17737;52.586;13.284;2022-10-16T01:17:31;100780.63;;;16.08;100.00
31082;BME280;17737;52.586;13.284;2022-10-16T01:20:10;100790.84;;;16.26;100.00
31082;BME280;17737;52.586;13.284;2022-10-16T01:23:05;100771.66;;;16.01;100.00
31082;BME280;17737;52.586;13.284;2022-10-16T01:25:59;100792.00;;;16.21;100.00
31082;BME280;17737;52.586;13.284;2022-10-16T01:28:48;100786.88;;;16.12;100.00
31082;BME280;17737;52.586;13.284;2022-10-16T01:31:27;100795.81;;;16.13;100.00
31082;BME280;17737;52.586;13.284;2022-10-16T01:34:03;100788.00;;;16.04;100.00
31082;BME280;17737;52.586;13.284;2022-10-16T01:36:39;100803.19;;;16.12;100.00
31082;BME280;17737;52.586;13.284;2022-10-16T01:39:13;100804.75;;;16.17;100.00
31082;BME280;17737;52.586;13.284;2022-10-16T01:41:46;100783.25;;;15.94;100.00
31082;BME280;17737;52.586;13.284;2022-10-16T01:44:22;100816.03;;;16.15;100.00
31082;BME280;17737;52.586;13.284;2022-10-16T01:46:56;100814.50;;;16.18;100.00
31082;BME280;17737;52.586;13.284;2022-10-16T01:49:28;100800.47;;;16.12;100.00
31082;BME280;17737;52.586;13.284;2022-10-16T01:52:02;100802.47;;;16.19;100.00
31082;BME280;17737;52.586;13.284;2022-10-16T01:54:35;100793.53;;;16.19;100.00
31082;BME280;17737;52.586;13.284;2022-10-16T01:57:06;100804.34;;;16.11;100.00
31082;BME280;17737;52.586;13.284;2022-10-16T01:59:40;100810.94;;;16.10;100.00
31082;BME280;17737;52.586;13.284;2022-10-16T02:02:12;100816.38;;;16.10;100.00
31082;BME280;17737;52.586;13.284;2022-10-16T02:04:46;100820.28;;;16.09;100.00
31082;BME280;17737;52.586;13.284;2022-10-16T02:07:19;100821.47;;;16.12;100.00
31082;BME280;17737;52.586;13.284;2022-10-16T02:09:47;100815.22;;;16.08;100.00
31082;BME280;17737;52.586;13.284;2022-10-16T02:12:21;100819.56;;;16.20;100.00
31082;BME280;17737;52.586;13.284;2022-10-16T02:14:55;100807.38;;;16.03;100.00
31082;BME280;17737;52.586;13.284;2022-10-16T02:17:24;100833.13;;;16.12;100.00
31082;BME280;17737;52.586;13.284;2022-10-16T02:19:54;100842.09;;;16.20;100.00
31082;BME280;17737;52.586;13.284;2022-10-16T02:22:28;100808.41;;;15.80;100.00
31082;BME280;17737;52.586;13.284;2022-10-16T02:25:02;100841.72;;;16.18;100.00
31082;BME280;17737;52.586;13.284;2022-10-16T02:27:37;100843.28;;;16.19;100.00
31082;BME280;17737;52.586;13.284;2022-10-16T02:30:14;100839.38;;;16.20;100.00
31082;BME280;17737;52.586;13.284;2022-10-16T02:32:49;100839.72;;;16.11;100.00
31082;BME280;17737;52.586;13.284;2022-10-16T02:35:21;100849.88;;;16.18;100.00
31082;BME280;17737;52.586;13.284;2022-10-16T02:37:51;100852.94;;;16.13;100.00
31082;BME280;17737;52.586;13.284;2022-10-16T02:40:21;100856.88;;;16.19;100.00
31082;BME280;17737;52.586;13.284;2022-10-16T02:42:52;100846.31;;;16.10;100.00
31082;BME280;17737;52.586;13.284;2022-10-16T02:45:23;100848.66;;;16.12;100.00
31082;BME280;17737;52.586;13.284;2022-10-16T02:47:51;100850.59;;;16.08;100.00
31082;BME280;17737;52.586;13.284;2022-10-16T02:50:19;100837.34;;;16.06;100.00
31082;BME280;17737;52.586;13.284;2022-10-16T02:52:47;100851.31;;;16.01;100.00
31082;BME280;17737;52.586;13.284;2022-10-16T02:55:15;100849.44;;;16.12;100.00
31082;BME280;17737;52.586;13.284;2022-10-16T02:57:43;100846.00;;;16.19;100.00
31082;BME280;17737;52.586;13.284;2022-10-16T03:00:16;100847.88;;;16.11;100.00
31082;BME280;17737;52.586;13.284;2022-10-16T03:02:54;100845.56;;;16.13;100.00
31082;BME280;17737;52.586;13.284;2022-10-16T03:05:22;100849.00;;;16.07;100.00
31082;BME280;17737;52.586;13.284;2022-10-16T03:07:52;100857.47;;;15.95;100.00
31082;BME280;17737;52.586;13.284;2022-10-16T03:10:20;100853.22;;;15.97;100.00
31082;BME280;17737;52.586;13.284;2022-10-16T03:12:48;100866.38;;;15.91;100.00
31082;BME280;17737;52.586;13.284;2022-10-16T03:15:15;100862.44;;;15.89;100.00
31082;BME280;17737;52.586;13.284;2022-10-16T03:17:44;100862.50;;;15.96;100.00
31082;BME280;17737;52.586;13.284;2022-10-16T03:20:13;100875.28;;;15.88;100.00
31082;BME280;17737;52.586;13.284;2022-10-16T03:22:41;100880.31;;;15.86;100.00
31082;BME280;17737;52.586;13.284;2022-10-16T03:25:09;100884.59;;;15.87;100.00
31082;BME280;17737;52.586;13.284;2022-10-16T03:27:44;100888.09;;;15.88;100.00
31082;BME280;17737;52.586;13.284;2022-10-16T03:30:12;100875.88;;;15.71;100.00
31082;BME280;17737;52.586;13.284;2022-10-16T03:32:40;100888.28;;;15.68;100.00
31082;BME280;17737;52.586;13.284;2022-10-16T03:35:08;100886.38;;;15.69;100.00
31082;BME280;17737;52.586;13.284;2022-10-16T03:37:38;100896.34;;;15.61;100.00
31082;BME280;17737;52.586;13.284;2022-10-16T03:40:06;100897.16;;;15.65;100.00
31082;BME280;17737;52.586;13.284;2022-10-16T03:42:35;100897.94;;;15.62;100.00
31082;BME280;17737;52.586;13.284;2022-10-16T03:45:03;100896.72;;;15.60;100.00
31082;BME280;17737;52.586;13.284;2022-10-16T03:47:32;100907.59;;;15.60;100.00
31082;BME280;17737;52.586;13.284;2022-10-16T03:50:00;100904.88;;;15.60;100.00
31082;BME280;17737;52.586;13.284;2022-10-16T03:52:28;100925.56;;;15.68;100.00
31082;BME280;17737;52.586;13.284;2022-10-16T03:54:57;100908.75;;;15.59;100.00
31082;BME280;17737;52.586;13.284;2022-10-16T03:57:25;100916.63;;;15.67;100.00
31082;BME280;17737;52.586;13.284;2022-10-16T03:59:54;100929.59;;;15.81;100.00
31082;BME280;17737;52.586;13.284;2022-10-16T04:02:22;100923.31;;;15.74;100.00
31082;BME280;17737;52.586;13.284;2022-10-16T04:04:50;100928.34;;;15.75;100.00
31082;BME280;17737;52.586;13.284;2022-10-16T04:07:18;100929.88;;;15.69;100.00
31082;BME280;17737;52.586;13.284;2022-10-16T04:09:45;100930.25;;;15.71;100.00
31082;BME280;17737;52.586;13.284;2022-10-16T04:12:15;100923.53;;;15.61;100.00
31082;BME280;17737;52.586;13.284;2022-10-16T04:14:43;100939.88;;;15.65;100.00
31082;BME280;17737;52.586;13.284;2022-10-16T04:17:11;100936.25;;;15.54;100.00
31082;BME280;17737;52.586;13.284;2022-10-16T04:19:38;100941.00;;;15.60;100.00
31082;BME280;17737;52.586;13.284;2022-10-16T04:22:06;100928.50;;;15.52;100.00
31082;BME280;17737;52.586;13.284;2022-10-16T04:24:34;100937.78;;;15.51;100.00
31082;BME280;17737;52.586;13.284;2022-10-16T04:27:02;100934.56;;;15.42;100.00
31082;BME280;17737;52.586;13.284;2022-10-16T04:29:32;100944.56;;;15.34;100.00
31082;BME280;17737;52.586;13.284;2022-10-16T04:32:00;100938.34;;;15.34;100.00
31082;BME280;17737;52.586;13.284;2022-10-16T04:34:28;100932.91;;;15.34;100.00
31082;BME280;17737;52.586;13.284;2022-10-16T04:36:55;100940.28;;;15.33;100.00
31082;BME280;17737;52.586;13.284;2022-10-16T04:39:23;100938.72;;;15.32;100.00
31082;BME280;17737;52.586;13.284;2022-10-16T04:41:51;100917.63;;;15.22;100.00
31082;BME280;17737;52.586;13.284;2022-10-16T04:44:19;100920.94;;;15.38;100.00
31082;BME280;17737;52.586;13.284;2022-10-16T04:46:50;100921.22;;;15.30;100.00
31082;BME280;17737;52.586;13.284;2022-10-16T04:49:18;100918.38;;;15.19;100.00
31082;BME280;17737;52.586;13.284;2022-10-16T04:51:46;100927.31;;;15.19;100.00
31082;BME280;17737;52.586;13.284;2022-10-16T04:54:24;100912.84;;;15.12;100.00
31082;BME280;17737;52.586;13.284;2022-10-16T04:56:57;100913.50;;;15.02;100.00
31082;BME280;17737;52.586;13.284;2022-10-16T04:59:25;100933.94;;;15.22;100.00
31082;BME280;17737;52.586;13.284;2022-10-16T05:01:54;100943.97;;;15.18;100.00
31082;BME280;17737;52.586;13.284;2022-10-16T05:04:22;100945.44;;;15.12;100.00
31082;BME280;17737;52.586;13.284;2022-10-16T05:06:50;100956.66;;;15.07;100.00
31082;BME280;17737;52.586;13.284;2022-10-16T05:09:17;100970.56;;;15.05;100.00
31082;BME280;17737;52.586;13.284;2022-10-16T05:11:46;100960.81;;;15.01;100.00
31082;BME280;17737;52.586;13.284;2022-10-16T05:14:14;100959.56;;;14.94;100.00
31082;BME280;17737;52.586;13.284;2022-10-16T05:16:42;100978.69;;;15.02;100.00
31082;BME280;17737;52.586;13.284;2022-10-16T05:19:11;100974.84;;;15.06;100.00
31082;BME280;17737;52.586;13.284;2022-10-16T05:21:54;100979.94;;;15.08;100.00
31082;BME280;17737;52.586;13.284;2022-10-16T05:24:22;100970.22;;;15.07;100.00
31082;BME280;17737;52.586;13.284;2022-10-16T05:26:51;100966.59;;;14.99;100.00
31082;BME280;17737;52.586;13.284;2022-10-16T05:29:19;100970.56;;;15.05;100.00
31082;BME280;17737;52.586;13.284;2022-10-16T05:31:50;100967.91;;;15.09;100.00
31082;BME280;17737;52.586;13.284;2022-10-16T05:34:20;100977.16;;;15.04;100.00
31082;BME280;17737;52.586;13.284;2022-10-16T05:36:48;100985.38;;;15.08;100.00
31082;BME280;17737;52.586;13.284;2022-10-16T05:39:16;100984.94;;;15.06;100.00
31082;BME280;17737;52.586;13.284;2022-10-16T05:41:44;100986.44;;;15.03;100.00
31082;BME280;17737;52.586;13.284;2022-10-16T05:44:12;100993.97;;;15.13;100.00
31082;BME280;17737;52.586;13.284;2022-10-16T05:46:40;101000.56;;;15.12;100.00
31082;BME280;17737;52.586;13.284;2022-10-16T05:49:08;100997.59;;;15.21;100.00
31082;BME280;17737;52.586;13.284;2022-10-16T05:51:37;100989.84;;;15.23;100.00
31082;BME280;17737;52.586;13.284;2022-10-16T05:54:05;100994.56;;;15.30;100.00
31082;BME280;17737;52.586;13.284;2022-10-16T05:56:33;100987.16;;;15.27;100.00
31082;BME280;17737;52.586;13.284;2022-10-16T05:59:00;100982.66;;;15.38;100.00
31082;BME280;17737;52.586;13.284;2022-10-16T06:01:30;100993.66;;;15.49;100.00
31082;BME280;17737;52.586;13.284;2022-10-16T06:03:59;100980.09;;;15.49;100.00
31082;BME280;17737;52.586;13.284;2022-10-16T06:06:28;100985.19;;;15.54;100.00
31082;BME280;17737;52.586;13.284;2022-10-16T06:08:58;100989.16;;;15.60;100.00
31082;BME280;17737;52.586;13.284;2022-10-16T06:11:28;100998.50;;;15.62;100.00
31082;BME280;17737;52.586;13.284;2022-10-16T06:13:58;100986.47;;;15.63;100.00
31082;BME280;17737;52.586;13.284;2022-10-16T06:16:28;100988.56;;;15.74;100.00
31082;BME280;17737;52.586;13.284;2022-10-16T06:18:57;100988.59;;;15.77;100.00
31082;BME280;17737;52.586;13.284;2022-10-16T06:21:26;100971.94;;;15.82;100.00
31082;BME280;17737;52.586;13.284;2022-10-16T06:23:56;100986.13;;;16.02;100.00
31082;BME280;17737;52.586;13.284;2022-10-16T06:26:27;100993.16;;;16.07;100.00
31082;BME280;17737;52.586;13.284;2022-10-16T06:28:57;100992.03;;;16.08;100.00
31082;BME280;17737;52.586;13.284;2022-10-16T06:31:27;100997.50;;;16.11;100.00
31082;BME280;17737;52.586;13.284;2022-10-16T06:33:58;101003.31;;;16.10;100.00
31082;BME280;17737;52.586;13.284;2022-10-16T06:36:26;101001.47;;;16.17;100.00
31082;BME280;17737;52.586;13.284;2022-10-16T06:38:54;100988.50;;;16.04;100.00
31082;BME280;17737;52.586;13.284;2022-10-16T06:41:23;101005.31;;;16.16;100.00
31082;BME280;17737;52.586;13.284;2022-10-16T06:43:52;101018.59;;;16.22;100.00
31082;BME280;17737;52.586;13.284;2022-10-16T06:46:22;101019.47;;;16.33;100.00
31082;BME280;17737;52.586;13.284;2022-10-16T06:48:51;101024.97;;;16.36;100.00
31082;BME280;17737;52.586;13.284;2022-10-16T06:51:20;101022.28;;;16.44;100.00
31082;BME280;17737;52.586;13.284;2022-10-16T06:53:51;101007.56;;;16.48;100.00
31082;BME280;17737;52.586;13.284;2022-10-16T06:56:30;101017.53;;;16.74;100.00
31082;BME280;17737;52.586;13.284;2022-10-16T06:59:00;101019.09;;;16.75;100.00
31082;BME280;17737;52.586;13.284;2022-10-16T07:01:29;101026.00;;;16.69;100.00
31082;BME280;17737;52.586;13.284;2022-10-16T07:03:57;101026.16;;;16.39;100.00
31082;BME280;17737;52.586;13.284;2022-10-16T07:06:26;101040.09;;;16.34;100.00
31082;BME280;17737;52.586;13.284;2022-10-16T07:08:54;101045.94;;;16.36;100.00
31082;BME280;17737;52.586;13.284;2022-10-16T07:11:23;101046.31;;;16.34;100.00
31082;BME280;17737;52.586;13.284;2022-10-16T07:13:51;101045.56;;;16.37;100.00
31082;BME280;17737;52.586;13.284;2022-10-16T07:16:24;101053.25;;;16.28;100.00
31082;BME280;17737;52.586;13.284;2022-10-16T07:18:53;101053.34;;;16.35;100.00
31082;BME280;17737;52.586;13.284;2022-10-16T07:21:26;101037.47;;;16.45;100.00
31082;BME280;17737;52.586;13.284;2022-10-16T07:23:57;101040.34;;;16.62;100.00
31082;BME280;17737;52.586;13.284;2022-10-16T07:26:29;101038.16;;;16.75;100.00
31082;BME280;17737;52.586;13.284;2022-10-16T07:28:58;101035.13;;;16.84;100.00
31082;BME280;17737;52.586;13.284;2022-10-16T07:31:28;101045.44;;;17.12;100.00
31082;BME280;17737;52.586;13.284;2022-10-16T07:33:57;101047.34;;;17.04;100.00
31082;BME280;17737;52.586;13.284;2022-10-16T07:36:26;101039.97;;;17.08;100.00
31082;BME280;17737;52.586;13.284;2022-10-16T07:38:55;101045.38;;;17.01;100.00
31082;BME280;17737;52.586;13.284;2022-10-16T07:41:26;101048.19;;;17.16;100.00
31082;BME280;17737;52.586;13.284;2022-10-16T07:43:55;101055.22;;;17.20;100.00
31082;BME280;17737;52.586;13.284;2022-10-16T07:46:28;101037.81;;;17.43;100.00
31082;BME280;17737;52.586;13.284;2022-10-16T07:48:57;101036.22;;;17.34;100.00
31082;BME280;17737;52.586;13.284;2022-10-16T07:51:25;101030.00;;;17.38;100.00
31082;BME280;17737;52.586;13.284;2022-10-16T07:53:54;101033.50;;;17.38;100.00
31082;BME280;17737;52.586;13.284;2022-10-16T07:56:22;101032.31;;;17.32;100.00
31082;BME280;17737;52.586;13.284;2022-10-16T07:58:50;101046.34;;;17.38;100.00
31082;BME280;17737;52.586;13.284;2022-10-16T08:01:19;101069.22;;;17.19;100.00
31082;BME280;17737;52.586;13.284;2022-10-16T08:03:51;101064.69;;;17.41;100.00
31082;BME280;17737;52.586;13.284;2022-10-16T08:06:21;101074.38;;;17.34;100.00
31082;BME280;17737;52.586;13.284;2022-10-16T08:08:54;101093.84;;;17.33;100.00
31082;BME280;17737;52.586;13.284;2022-10-16T08:11:22;101092.63;;;17.27;100.00
31082;BME280;17737;52.586;13.284;2022-10-16T08:13:51;101068.34;;;17.07;100.00
31082;BME280;17737;52.586;13.284;2022-10-16T08:16:19;101075.91;;;17.28;100.00
31082;BME280;17737;52.586;13.284;2022-10-16T08:18:47;101069.28;;;17.29;100.00
31082;BME280;17737;52.586;13.284;2022-10-16T08:21:19;101070.13;;;17.41;100.00
31082;BME280;17737;52.586;13.284;2022-10-16T08:23:49;101074.78;;;17.37;100.00
31082;BME280;17737;52.586;13.284;2022-10-16T08:26:24;101077.06;;;17.27;100.00
31082;BME280;17737;52.586;13.284;2022-10-16T08:28:53;101082.44;;;17.17;100.00
31082;BME280;17737;52.586;13.284;2022-10-16T08:31:23;101083.69;;;17.30;100.00
31082;BME280;17737;52.586;13.284;2022-10-16T08:33:53;101084.56;;;17.45;100.00
31082;BME280;17737;52.586;13.284;2022-10-16T08:36:21;101086.19;;;17.53;100.00
31082;BME280;17737;52.586;13.284;2022-10-16T08:38:50;101086.59;;;17.62;100.00
31082;BME280;17737;52.586;13.284;2022-10-16T08:41:30;101087.41;;;17.66;100.00
31082;BME280;17737;52.586;13.284;2022-10-16T08:44:34;101074.59;;;17.70;100.00
31082;BME280;17737;52.586;13.284;2022-10-16T08:47:24;101078.84;;;17.64;100.00
31082;BME280;17737;52.586;13.284;2022-10-16T08:50:09;101077.66;;;17.62;100.00
31082;BME280;17737;52.586;13.284;2022-10-16T08:52:42;101085.19;;;17.86;100.00
31082;BME280;17737;52.586;13.284;2022-10-16T08:55:25;101081.66;;;17.78;100.00
31082;BME280;17737;52.586;13.284;2022-10-16T08:57:59;101084.13;;;18.09;100.00
31082;BME280;17737;52.586;13.284;2022-10-16T09:00:27;101093.81;;;17.99;100.00
31082;BME280;17737;52.586;13.284;2022-10-16T09:03:04;101093.13;;;18.23;100.00
31082;BME280;17737;52.586;13.284;2022-10-16T09:05:53;101095.78;;;18.05;100.00
31082;BME280;17737;52.586;13.284;2022-10-16T09:08:42;101100.09;;;18.14;100.00
31082;BME280;17737;52.586;13.284;2022-10-16T09:11:25;101107.03;;;17.90;100.00
31082;BME280;17737;52.586;13.284;2022-10-16T09:14:15;101107.84;;;18.01;100.00
31082;BME280;17737;52.586;13.284;2022-10-16T09:17:16;101106.69;;;17.98;100.00
31082;BME280;17737;52.586;13.284;2022-10-16T09:19:56;101108.44;;;17.69;100.00
31082;BME280;17737;52.586;13.284;2022-10-16T09:22:39;101114.31;;;17.71;100.00
31082;BME280;17737;52.586;13.284;2022-10-16T09:25:13;101106.66;;;17.88;100.00
31082;BME280;17737;52.586;13.284;2022-10-16T09:27:44;101113.22;;;17.83;100.00
31082;BME280;17737;52.586;13.284;2022-10-16T09:30:17;101119.00;;;17.71;100.00
31082;BME280;17737;52.586;13.284;2022-10-16T09:32:50;101118.66;;;17.76;100.00
31082;BME280;17737;52.586;13.284;2022-10-16T09:35:22;101115.88;;;17.72;100.00
31082;BME280;17737;52.586;13.284;2022-10-16T09:38:00;101116.59;;;17.62;100.00
31082;BME280;17737;52.586;13.284;2022-10-16T09:40:30;101123.25;;;17.65;100.00
31082;BME280;17737;52.586;13.284;2022-10-16T09:43:16;101125.56;;;17.66;100.00
31082;BME280;17737;52.586;13.284;2022-10-16T09:45:57;101131.16;;;17.80;100.00
31082;BME280;17737;52.586;13.284;2022-10-16T09:48:28;101125.72;;;17.80;100.00
31082;BME280;17737;52.586;13.284;2022-10-16T09:51:03;101131.41;;;17.61;100.00
31082;BME280;17737;52.586;13.284;2022-10-16T09:53:42;101137.41;;;17.85;100.00
31082;BME280;17737;52.586;13.284;2022-10-16T09:56:21;101142.56;;;18.04;100.00
31082;BME280;17737;52.586;13.284;2022-10-16T09:58:50;101125.44;;;18.14;100.00
31082;BME280;17737;52.586;13.284;2022-10-16T10:01:20;101129.81;;;18.40;100.00
31082;BME280;17737;52.586;13.284;2022-10-16T10:03:55;101143.13;;;18.63;100.00
31082;BME280;17737;52.586;13.284;2022-10-16T10:06:28;101138.06;;;18.62;100.00
31082;BME280;17737;52.586;13.284;2022-10-16T10:09:04;101138.78;;;18.37;100.00
31082;BME280;17737;52.586;13.284;2022-10-16T10:11:44;101148.06;;;18.22;100.00
31082;BME280;17737;52.586;13.284;2022-10-16T10:14:22;101141.84;;;18.25;100.00
31082;BME280;17737;52.586;13.284;2022-10-16T10:17:11;101148.94;;;18.37;100.00
31082;BME280;17737;52.586;13.284;2022-10-16T10:19:48;101138.78;;;18.34;100.00
31082;BME280;17737;52.586;13.284;2022-10-16T10:22:22;101149.66;;;18.23;100.00
31082;BME280;17737;52.586;13.284;2022-10-16T10:25:00;101151.66;;;18.33;100.00
31082;BME280;17737;52.586;13.284;2022-10-16T10:27:51;101149.66;;;18.23;100.00
31082;BME280;17737;52.586;13.284;2022-10-16T10:30:36;101169.63;;;18.48;100.00
31082;BME280;17737;52.586;13.284;2022-10-16T10:33:18;101166.16;;;18.62;100.00
31082;BME280;17737;52.586;13.284;2022-10-16T10:35:58;101164.25;;;18.73;100.00
31082;BME280;17737;52.586;13.284;2022-10-16T10:38:44;101174.81;;;18.93;100.00
31082;BME280;17737;52.586;13.284;2022-10-16T10:41:32;101174.03;;;18.85;100.00
31082;BME280;17737;52.586;13.284;2022-10-16T10:44:21;101159.59;;;18.85;100.00
31082;BME280;17737;52.586;13.284;2022-10-16T10:47:08;101147.50;;;19.21;100.00
31082;BME280;17737;52.586;13.284;2022-10-16T10:49:55;101146.34;;;19.19;100.00
31082;BME280;17737;52.586;13.284;2022-10-16T10:52:42;101149.06;;;19.37;100.00
31082;BME280;17737;52.586;13.284;2022-10-16T10:55:24;101148.28;;;19.43;100.00
31082;BME280;17737;52.586;13.284;2022-10-16T11:01:12;101152.97;;;19.29;100.00
31082;BME280;17737;52.586;13.284;2022-10-16T11:04:09;101158.44;;;19.18;100.00
31082;BME280;17737;52.586;13.284;2022-10-16T11:06:52;101155.31;;;19.16;100.00
31082;BME280;17737;52.586;13.284;2022-10-16T11:09:28;101157.25;;;19.15;100.00
31082;BME280;17737;52.586;13.284;2022-10-16T11:12:06;101149.44;;;19.17;100.00
31082;BME280;17737;52.586;13.284;2022-10-16T11:14:47;101144.00;;;19.10;100.00
31082;BME280;17737;52.586;13.284;2022-10-16T11:17:23;101147.91;;;19.16;100.00
31082;BME280;17737;52.586;13.284;2022-10-16T11:19:58;101151.41;;;19.03;100.00
31082;BME280;17737;52.586;13.284;2022-10-16T11:22:36;101161.94;;;18.93;100.00
31082;BME280;17737;52.586;13.284;2022-10-16T11:25:13;101150.59;;;18.84;100.00
31082;BME280;17737;52.586;13.284;2022-10-16T11:27:47;101136.88;;;18.59;100.00
31082;BME280;17737;52.586;13.284;2022-10-16T11:30:22;101155.63;;;18.64;100.00
31082;BME280;17737;52.586;13.284;2022-10-16T11:33:10;101157.19;;;18.69;100.00
31082;BME280;17737;52.586;13.284;2022-10-16T11:35:53;101151.78;;;18.90;100.00
31082;BME280;17737;52.586;13.284;2022-10-16T11:38:31;101143.22;;;19.03;100.00
31082;BME280;17737;52.586;13.284;2022-10-16T11:41:12;101143.97;;;19.21;100.00
31082;BME280;17737;52.586;13.284;2022-10-16T11:43:55;101143.59;;;19.40;100.00
31082;BME280;17737;52.586;13.284;2022-10-16T11:46:36;101140.88;;;19.30;100.00
31082;BME280;17737;52.586;13.284;2022-10-16T11:49:26;101142.41;;;19.31;100.00
31082;BME280;17737;52.586;13.284;2022-10-16T11:52:05;101147.50;;;19.29;100.00
31082;BME280;17737;52.586;13.284;2022-10-16T11:54:48;101152.94;;;19.36;100.00
31082;BME280;17737;52.586;13.284;2022-10-16T11:57:24;101139.28;;;19.32;100.00
31082;BME280;17737;52.586;13.284;2022-10-16T11:59:59;101140.06;;;19.47;100.00
31082;BME280;17737;52.586;13.284;2022-10-16T12:02:48;101145.91;;;19.45;100.00
31082;BME280;17737;52.586;13.284;2022-10-16T12:05:27;101137.69;;;19.56;100.00
31082;BME280;17737;52.586;13.284;2022-10-16T12:08:08;101132.59;;;19.58;100.00
31082;BME280;17737;52.586;13.284;2022-10-16T12:10:40;101144.72;;;19.57;100.00
31082;BME280;17737;52.586;13.284;2022-10-16T12:13:31;101164.69;;;19.43;100.00
31082;BME280;17737;52.586;13.284;2022-10-16T12:16:06;101161.56;;;19.41;100.00
31082;BME280;17737;52.586;13.284;2022-10-16T12:18:48;101153.75;;;19.47;100.00
31082;BME280;17737;52.586;13.284;2022-10-16T12:21:17;101154.88;;;19.49;100.00
31082;BME280;17737;52.586;13.284;2022-10-16T12:23:48;101166.22;;;19.52;100.00
31082;BME280;17737;52.586;13.284;2022-10-16T12:26:24;101168.19;;;19.65;100.00
31082;BME280;17737;52.586;13.284;2022-10-16T12:28:53;101141.63;;;19.48;100.00
31082;BME280;17737;52.586;13.284;2022-10-16T12:31:23;101170.53;;;19.42;100.00
31082;BME280;17737;52.586;13.284;2022-10-16T12:33:58;101168.56;;;19.53;100.00
31082;BME280;17737;52.586;13.284;2022-10-16T12:36:30;101169.34;;;19.57;100.00
31082;BME280;17737;52.586;13.284;2022-10-16T12:39:01;101170.13;;;19.72;100.00
31082;BME280;17737;52.586;13.284;2022-10-16T12:41:32;101174.03;;;19.64;100.00
31082;BME280;17737;52.586;13.284;2022-10-16T12:44:02;101172.88;;;19.65;100.00
31082;BME280;17737;52.586;13.284;2022-10-16T12:46:38;101165.03;;;19.49;100.00
31082;BME280;17737;52.586;13.284;2022-10-16T12:49:31;101178.72;;;19.63;100.00
31082;BME280;17737;52.586;13.284;2022-10-16T12:52:03;101177.56;;;19.57;100.00
31082;BME280;17737;52.586;13.284;2022-10-16T12:54:35;101185.78;;;19.64;100.00
31082;BME280;17737;52.586;13.284;2022-10-16T12:57:24;101184.19;;;19.60;100.00
31082;BME280;17737;52.586;13.284;2022-10-16T13:00:12;101181.88;;;19.37;100.00
31082;BME280;17737;52.586;13.284;2022-10-16T13:06:19;101192.38;;;19.74;100.00
31082;BME280;17737;52.586;13.284;2022-10-16T13:09:12;101188.06;;;19.84;100.00